Time;durP1;ratioP1;P1;durP2;ratioP2;P2;SDS_P1;SDS_P2;PMS_P1;PMS_P2;Temp;Humidity;BMP_temperature;BMP_pressure;BME280_temperature;BME280_humidity;BME280_pressure;Samples;Min_cycle;Max_cycle;Signal;HPM_P1;HPM_P2
2021/07/09 00:01:29;;;;;;;5.80;5.37;;;14.60;99.90;;;;;;4914367;29;20789;-62
2021/07/09 00:03:56;;;;;;;4.77;4.23;;;14.60;99.90;;;;;;4913731;29;20429;-62
2021/07/09 00:06:22;;;;;;;5.77;5.27;;;14.60;99.90;;;;;;4914276;29;20196;-62
2021/07/09 00:08:48;;;;;;;5.33;4.90;;;14.50;99.90;;;;;;4914235;29;20963;-60
2021/07/09 00:11:14;;;;;;;5.40;4.90;;;14.50;99.90;;;;;;4913542;29;20184;-61
2021/07/09 00:13:40;;;;;;;7.87;5.67;;;14.40;99.90;;;;;;4914360;29;20981;-60
2021/07/09 00:16:06;;;;;;;5.77;5.30;;;14.40;99.90;;;;;;4913864;29;20507;-61
2021/07/09 00:18:32;;;;;;;7.70;5.33;;;14.40;99.90;;;;;;4913985;29;20255;-61
2021/07/09 00:20:57;;;;;;;4.77;4.37;;;14.40;99.90;;;;;;4914072;29;20172;-61
2021/07/09 00:23:23;;;;;;;5.03;4.50;;;14.40;99.90;;;;;;4913750;29;20464;-63
2021/07/09 00:25:49;;;;;;;5.10;4.73;;;14.40;99.90;;;;;;4913751;29;20245;-61
2021/07/09 00:28:15;;;;;;;4.33;4.10;;;14.40;99.90;;;;;;4914229;29;20180;-60
2021/07/09 00:30:40;;;;;;;4.90;4.50;;;14.50;99.90;;;;;;4913867;29;20271;-61
2021/07/09 00:33:06;;;;;;;8.43;5.37;;;14.50;99.90;;;;;;4912914;29;20205;-62
2021/07/09 00:35:31;;;;;;;5.53;4.70;;;14.50;99.90;;;;;;4913615;29;20672;-61
2021/07/09 00:37:57;;;;;;;5.20;4.73;;;14.60;99.90;;;;;;4913967;29;20176;-62
2021/07/09 00:40:23;;;;;;;5.23;4.73;;;14.50;99.90;;;;;;4914283;29;20641;-59
2021/07/09 00:42:48;;;;;;;5.17;4.77;;;14.50;99.90;;;;;;4913855;29;20196;-62
2021/07/09 00:45:14;;;;;;;5.50;5.00;;;14.50;99.90;;;;;;4913574;29;20637;-63
2021/07/09 00:47:44;;;;;;;6.20;5.60;;;14.40;99.90;;;;;;4913743;29;20514;-62
2021/07/09 00:50:11;;;;;;;6.83;6.23;;;14.50;99.90;;;;;;4913427;29;20780;-61
2021/07/09 00:52:37;;;;;;;5.93;5.53;;;14.50;99.90;;;;;;4912864;29;20417;-61
2021/07/09 00:55:04;;;;;;;5.93;5.33;;;14.40;99.90;;;;;;4913373;29;20408;-61
2021/07/09 00:57:29;;;;;;;5.87;5.27;;;14.20;99.90;;;;;;4913688;29;20521;-61
2021/07/09 00:59:55;;;;;;;5.03;4.63;;;14.20;99.90;;;;;;4913496;29;20558;-63
2021/07/09 01:02:23;;;;;;;6.60;5.53;;;14.20;99.90;;;;;;4912834;29;20200;-63
2021/07/09 01:04:49;;;;;;;6.50;6.00;;;14.20;99.90;;;;;;4913402;29;20189;-61
2021/07/09 01:07:14;;;;;;;6.20;5.70;;;14.30;99.90;;;;;;4913775;29;20417;-61
2021/07/09 01:09:40;;;;;;;6.83;6.33;;;14.30;99.90;;;;;;4913301;29;20425;-60
2021/07/09 01:12:06;;;;;;;7.03;6.33;;;14.30;99.90;;;;;;4913368;29;20177;-62
2021/07/09 01:14:32;;;;;;;5.73;5.17;;;14.30;99.90;;;;;;4912332;29;20296;-61
2021/07/09 01:16:57;;;;;;;7.20;5.90;;;14.40;99.90;;;;;;4912223;29;20429;-61
2021/07/09 01:19:23;;;;;;;6.00;5.50;;;14.30;99.90;;;;;;4913580;29;20161;-62
2021/07/09 01:21:49;;;;;;;5.63;5.13;;;14.30;99.90;;;;;;4913785;29;20177;-61
2021/07/09 01:24:16;;;;;;;5.53;5.10;;;14.40;99.90;;;;;;4914983;29;20216;-61
2021/07/09 01:26:43;;;;;;;5.03;4.63;;;14.50;99.90;;;;;;4915855;29;20487;-62
2021/07/09 01:29:09;;;;;;;5.97;5.50;;;14.50;99.90;;;;;;4916469;29;20417;-60
2021/07/09 01:31:36;;;;;;;6.30;5.70;;;14.60;99.90;;;;;;4915768;29;20450;-60
2021/07/09 01:34:03;;;;;;;7.00;6.50;;;14.60;99.90;;;;;;4915408;29;20828;-61
2021/07/09 01:36:29;;;;;;;7.07;6.47;;;14.70;99.90;;;;;;4915907;29;20492;-61
2021/07/09 01:38:54;;;;;;;6.30;5.80;;;14.70;99.90;;;;;;4915986;29;21001;-60
2021/07/09 01:41:20;;;;;;;5.30;5.00;;;14.70;99.90;;;;;;4915282;29;20897;-61
2021/07/09 01:43:47;;;;;;;6.40;5.90;;;14.80;99.90;;;;;;4914561;29;20291;-61
2021/07/09 01:46:13;;;;;;;5.97;5.57;;;14.80;99.90;;;;;;4915291;29;20595;-61
2021/07/09 01:48:38;;;;;;;5.70;5.20;;;14.80;99.90;;;;;;4915195;29;20401;-61
2021/07/09 01:51:05;;;;;;;8.43;6.73;;;14.80;99.90;;;;;;4915429;29;20782;-61
2021/07/09 01:53:31;;;;;;;6.77;6.17;;;14.80;99.90;;;;;;4914646;29;20216;-61
2021/07/09 01:55:56;;;;;;;7.83;7.03;;;14.80;99.90;;;;;;4915007;29;20817;-61
2021/07/09 01:58:22;;;;;;;6.80;6.23;;;14.80;99.90;;;;;;4914961;29;20173;-61
2021/07/09 02:00:48;;;;;;;7.90;7.10;;;14.90;99.90;;;;;;4914970;29;20252;-61
2021/07/09 02:03:13;;;;;;;9.27;8.30;;;14.80;99.90;;;;;;4914627;29;20649;-61
2021/07/09 02:05:39;;;;;;;9.13;7.60;;;14.80;99.90;;;;;;4914947;29;20183;-61
2021/07/09 02:08:06;;;;;;;9.13;8.20;;;14.80;99.90;;;;;;4914952;29;20543;-61
2021/07/09 02:10:35;;;;;;;10.53;9.57;;;14.70;99.90;;;;;;4914859;29;20181;-61
2021/07/09 02:13:02;;;;;;;9.63;8.83;;;14.80;99.90;;;;;;4914239;29;20471;-61
2021/07/09 02:15:47;;;;;;;10.17;8.43;;;14.90;99.90;;;;;;4914638;29;20416;-61
2021/07/09 02:18:14;;;;;;;11.37;8.60;;;14.90;99.90;;;;;;4914769;29;20413;-61
2021/07/09 02:20:40;;;;;;;9.60;8.70;;;14.80;99.90;;;;;;4914768;29;20455;-61
2021/07/09 02:23:08;;;;;;;11.87;9.80;;;14.80;99.90;;;;;;4914037;29;20456;-61
2021/07/09 02:25:35;;;;;;;12.37;11.30;;;14.90;99.90;;;;;;4914622;29;20420;-61
2021/07/09 02:28:02;;;;;;;9.80;8.90;;;14.80;99.90;;;;;;4914573;29;20932;-61
2021/07/09 02:30:29;;;;;;;11.63;10.53;;;14.90;99.90;;;;;;4914546;29;20551;-61
2021/07/09 02:32:55;;;;;;;11.40;10.40;;;14.80;99.90;;;;;;4913991;29;20503;-61
2021/07/09 02:35:25;;;;;;;13.37;12.10;;;14.90;99.90;;;;;;4913995;29;20444;-62
2021/07/09 02:37:51;;;;;;;11.40;9.80;;;14.90;99.90;;;;;;4914385;29;20177;-61
2021/07/09 02:40:19;;;;;;;12.43;11.07;;;15.00;99.90;;;;;;4914349;29;20457;-61
2021/07/09 02:42:47;;;;;;;14.43;12.93;;;15.00;99.90;;;;;;4914147;29;20444;-61
2021/07/09 02:45:13;;;;;;;14.67;13.27;;;15.00;99.90;;;;;;4914335;29;20420;-61
2021/07/09 02:47:40;;;;;;;14.80;13.33;;;14.90;99.90;;;;;;4914375;29;20479;-61
2021/07/09 02:50:11;;;;;;;19.10;14.40;;;15.00;99.90;;;;;;4914329;29;20405;-61
2021/07/09 02:52:37;;;;;;;15.27;13.70;;;14.90;99.90;;;;;;4913643;29;20408;-60
2021/07/09 02:55:10;;;;;;;15.50;13.30;;;14.90;99.90;;;;;;4914370;29;20789;-61
2021/07/09 02:57:36;;;;;;;15.33;13.80;;;15.00;99.90;;;;;;4914162;29;20169;-60
2021/07/09 03:00:04;;;;;;;16.60;14.80;;;15.00;99.90;;;;;;4914124;29;20420;-61
2021/07/09 03:02:30;;;;;;;18.07;15.00;;;15.10;99.90;;;;;;4913599;29;20409;-61
2021/07/09 03:04:55;;;;;;;15.40;13.90;;;15.10;99.90;;;;;;4913940;29;20575;-61
2021/07/09 03:07:21;;;;;;;13.60;12.07;;;15.10;99.90;;;;;;4914032;29;20181;-61
2021/07/09 03:09:47;;;;;;;16.10;14.50;;;15.10;99.90;;;;;;4914197;29;20187;-61
2021/07/09 03:12:12;;;;;;;15.23;13.60;;;15.00;99.90;;;;;;4914097;29;20512;-61
2021/07/09 03:14:39;;;;;;;14.10;12.80;;;15.10;99.90;;;;;;4913402;29;20212;-61
2021/07/09 03:17:05;;;;;;;15.47;13.87;;;15.00;99.90;;;;;;4914403;29;20457;-61
2021/07/09 03:19:31;;;;;;;15.70;13.73;;;15.00;99.90;;;;;;4913745;29;20415;-60
2021/07/09 03:21:56;;;;;;;13.93;12.17;;;15.00;99.90;;;;;;4914031;29;20668;-61
2021/07/09 03:24:22;;;;;;;12.77;11.47;;;15.00;99.90;;;;;;4913273;29;20743;-62
2021/07/09 03:26:47;;;;;;;17.20;14.43;;;15.10;99.90;;;;;;4913749;29;20227;-59
2021/07/09 03:29:13;;;;;;;12.83;11.53;;;15.10;99.90;;;;;;4913821;29;20185;-61
2021/07/09 03:31:38;;;;;;;14.00;11.87;;;15.10;99.90;;;;;;4913640;29;20181;-61
2021/07/09 03:34:04;;;;;;;15.67;14.03;;;15.20;99.90;;;;;;4913046;29;20210;-60
2021/07/09 03:36:30;;;;;;;17.80;14.37;;;15.30;99.90;;;;;;4913808;29;20177;-61
2021/07/09 03:38:57;;;;;;;15.17;13.73;;;15.30;99.90;;;;;;4913612;29;20584;-61
2021/07/09 03:41:24;;;;;;;10.07;9.07;;;15.20;99.90;;;;;;4913474;29;20165;-61
2021/07/09 03:43:49;;;;;;;7.07;6.57;;;15.30;99.90;;;;;;4913061;29;20806;-61
2021/07/09 03:46:15;;;;;;;13.30;12.17;;;15.50;99.90;;;;;;4912383;29;20416;-62
2021/07/09 03:48:40;;;;;;;16.03;14.43;;;15.70;99.90;;;;;;4913255;29;20250;-61
2021/07/09 03:51:07;;;;;;;16.67;15.20;;;15.60;99.90;;;;;;4913436;29;20196;-61
2021/07/09 03:53:33;;;;;;;16.83;15.00;;;15.40;99.90;;;;;;4912868;29;20719;-61
2021/07/09 03:55:59;;;;;;;16.13;14.50;;;15.40;99.90;;;;;;4913374;29;20775;-62
2021/07/09 03:58:25;;;;;;;12.53;10.87;;;15.30;99.90;;;;;;4913306;29;20405;-61
2021/07/09 04:00:50;;;;;;;12.63;11.43;;;15.40;99.90;;;;;;4913395;29;20307;-61
2021/07/09 04:03:16;;;;;;;13.33;12.13;;;15.40;99.90;;;;;;4912752;29;20571;-61
2021/07/09 04:05:42;;;;;;;18.13;14.77;;;15.30;99.90;;;;;;4913444;29;20405;-59
2021/07/09 04:08:07;;;;;;;13.57;12.37;;;15.30;99.90;;;;;;4913178;29;20212;-61
2021/07/09 04:10:33;;;;;;;16.70;14.20;;;15.30;99.90;;;;;;4913111;29;20177;-61
2021/07/09 04:12:59;;;;;;;13.83;12.53;;;15.30;99.90;;;;;;4912663;29;20626;-61
2021/07/09 04:15:24;;;;;;;16.17;14.63;;;15.30;99.90;;;;;;4913524;29;20165;-61
2021/07/09 04:17:50;;;;;;;13.33;12.07;;;15.30;99.90;;;;;;4912928;29;20179;-61
2021/07/09 04:20:15;;;;;;;14.73;13.33;;;15.30;99.90;;;;;;4913028;29;20606;-61
2021/07/09 04:22:41;;;;;;;12.47;11.20;;;15.40;99.90;;;;;;4912608;29;20189;-61
2021/07/09 04:25:09;;;;;;;15.33;13.93;;;15.50;99.90;;;;;;4912997;29;20661;-61
2021/07/09 04:27:40;;;;;;;14.00;12.60;;;15.50;99.90;;;;;;4912918;29;20204;-61
2021/07/09 04:30:08;;;;;;;15.07;13.47;;;15.50;99.90;;;;;;4912926;29;20405;-61
2021/07/09 04:32:34;;;;;;;11.33;10.43;;;15.50;99.90;;;;;;4912340;29;20419;-62
2021/07/09 04:35:00;;;;;;;11.60;10.50;;;15.60;99.90;;;;;;4912774;29;20546;-61
2021/07/09 04:37:25;;;;;;;11.23;10.07;;;15.60;99.90;;;;;;4912809;29;20543;-60
2021/07/09 04:39:51;;;;;;;10.60;9.70;;;15.70;99.90;;;;;;4912774;29;20219;-61
2021/07/09 04:42:17;;;;;;;14.57;13.30;;;15.80;99.90;;;;;;4912602;29;20250;-62
2021/07/09 04:44:43;;;;;;;15.17;13.57;;;15.80;99.90;;;;;;4912320;29;20239;-61
2021/07/09 04:47:08;;;;;;;16.30;14.60;;;15.90;99.90;;;;;;4912643;29;20193;-61
2021/07/09 04:49:34;;;;;;;16.57;14.90;;;15.90;99.90;;;;;;4912684;29;20424;-60
2021/07/09 04:51:59;;;;;;;16.07;14.67;;;15.80;99.90;;;;;;4912653;29;20177;-62
2021/07/09 04:54:25;;;;;;;17.10;15.40;;;15.80;99.90;;;;;;4912088;29;20208;-61
2021/07/09 04:56:51;;;;;;;16.50;15.00;;;15.80;99.90;;;;;;4913356;29;20259;-60
2021/07/09 04:59:16;;;;;;;12.67;11.57;;;15.70;99.90;;;;;;4915894;29;20232;-61
2021/07/09 05:01:42;;;;;;;18.33;16.47;;;15.70;99.90;;;;;;4915860;29;20648;-61
2021/07/09 05:04:08;;;;;;;13.20;11.93;;;15.80;99.90;;;;;;4915471;29;20200;-60
2021/07/09 05:06:34;;;;;;;13.57;12.27;;;15.80;99.90;;;;;;4915796;29;20631;-62
2021/07/09 05:09:01;;;;;;;14.77;13.20;;;15.80;99.90;;;;;;4915899;29;20191;-62
2021/07/09 05:11:26;;;;;;;21.17;16.97;;;15.80;99.90;;;;;;4915729;29;20416;-61
2021/07/09 05:13:52;;;;;;;16.83;15.23;;;15.80;99.90;;;;;;4915104;29;20511;-61
2021/07/09 05:16:19;;;;;;;22.90;17.13;;;15.80;99.90;;;;;;4915889;29;20604;-61
2021/07/09 05:18:44;;;;;;;16.67;13.27;;;15.70;99.90;;;;;;4915683;29;20528;-61
2021/07/09 05:21:10;;;;;;;16.30;14.27;;;15.80;99.90;;;;;;4915579;29;20423;-62
2021/07/09 05:23:35;;;;;;;20.80;16.23;;;15.90;99.90;;;;;;4914660;29;20685;-62
2021/07/09 05:26:01;;;;;;;21.53;15.50;;;15.90;99.90;;;;;;4915567;29;20181;-61
2021/07/09 05:28:27;;;;;;;16.83;15.23;;;15.80;99.90;;;;;;4915495;29;20187;-62
2021/07/09 05:30:53;;;;;;;13.30;12.10;;;15.90;99.90;;;;;;4915422;29;20228;-62
2021/07/09 05:33:18;;;;;;;13.27;11.63;;;15.90;99.90;;;;;;4914901;29;20704;-61
2021/07/09 05:35:44;;;;;;;12.20;11.10;;;16.00;99.90;;;;;;4915420;29;20444;-61
2021/07/09 05:38:10;;;;;;;17.13;15.40;;;16.20;99.90;;;;;;4915415;29;20181;-61
2021/07/09 05:40:36;;;;;;;17.77;15.50;;;16.10;99.90;;;;;;4915356;29;20416;-61
2021/07/09 05:43:02;;;;;;;17.40;15.00;;;16.10;99.90;;;;;;4914800;29;20205;-60
2021/07/09 05:45:31;;;;;;;16.33;13.90;;;16.20;99.90;;;;;;4915137;29;20223;-62
2021/07/09 05:47:57;;;;;;;15.70;14.17;;;16.20;99.90;;;;;;4915222;29;20924;-62
2021/07/09 05:50:22;;;;;;;18.80;16.10;;;16.20;99.90;;;;;;4915288;29;20417;-61
2021/07/09 05:52:48;;;;;;;17.33;15.47;;;16.10;99.90;;;;;;4914586;29;20205;-62
2021/07/09 05:55:14;;;;;;;15.90;14.30;;;16.10;99.90;;;;;;4915146;29;20575;-62
2021/07/09 05:57:41;;;;;;;13.37;12.07;;;16.10;99.90;;;;;;4915008;29;20179;-61
2021/07/09 06:00:09;;;;;;;13.83;12.53;;;16.20;99.90;;;;;;4914962;29;20501;-61
2021/07/09 06:02:36;;;;;;;13.67;12.30;;;16.20;99.90;;;;;;4914534;29;20421;-61
2021/07/09 06:05:03;;;;;;;13.13;11.73;;;16.20;99.90;;;;;;4915118;29;20420;-61
2021/07/09 06:07:28;;;;;;;13.70;12.27;;;16.20;99.90;;;;;;4914840;29;20413;-61
2021/07/09 06:09:54;;;;;;;18.80;12.43;;;16.20;99.90;;;;;;4913889;29;20413;-61
2021/07/09 06:12:19;;;;;;;17.13;13.77;;;16.20;99.90;;;;;;4914509;29;20600;-60
2021/07/09 06:14:45;;;;;;;14.63;13.17;;;16.20;99.90;;;;;;4914616;29;20548;-62
2021/07/09 06:17:11;;;;;;;16.33;11.87;;;16.20;99.90;;;;;;4914763;29;20173;-61
2021/07/09 06:19:36;;;;;;;15.27;13.73;;;16.30;99.90;;;;;;4914731;29;20222;-61
2021/07/09 06:22:02;;;;;;;15.23;12.80;;;16.40;99.90;;;;;;4915001;29;20603;-60
2021/07/09 06:24:28;;;;;;;14.30;12.83;;;16.50;99.90;;;;;;4914254;29;20212;-62
2021/07/09 06:26:53;;;;;;;17.17;15.53;;;16.60;99.90;;;;;;4914612;29;20188;-61
2021/07/09 06:29:19;;;;;;;18.00;16.20;;;16.60;99.90;;;;;;4914597;29;20291;-61
2021/07/09 06:31:45;;;;;;;18.20;16.30;;;16.60;99.90;;;;;;4914679;29;20720;-61
2021/07/09 06:34:10;;;;;;;19.03;17.03;;;16.50;99.90;;;;;;4914070;29;20315;-62
2021/07/09 06:36:36;;;;;;;16.90;15.17;;;16.60;99.90;;;;;;4914489;29;20177;-62
2021/07/09 06:39:02;;;;;;;18.70;16.90;;;16.60;99.90;;;;;;4914467;29;20264;-61
2021/07/09 06:41:28;;;;;;;17.80;16.00;;;16.60;99.90;;;;;;4914352;29;20200;-62
2021/07/09 06:43:53;;;;;;;19.73;17.63;;;16.70;99.90;;;;;;4913921;29;20953;-61
2021/07/09 06:46:19;;;;;;;17.40;14.80;;;16.70;99.90;;;;;;4914371;29;20204;-62
2021/07/09 06:48:45;;;;;;;19.03;17.10;;;16.80;99.90;;;;;;4914351;29;20176;-62
2021/07/09 06:51:11;;;;;;;11.00;9.87;;;16.80;99.90;;;;;;4914322;29;20401;-61
2021/07/09 06:53:37;;;;;;;12.17;10.70;;;16.90;99.90;;;;;;4913712;29;20201;-60
2021/07/09 06:56:04;;;;;;;16.33;14.63;;;16.90;99.90;;;;;;4914057;29;20215;-62
2021/07/09 06:58:30;;;;;;;12.63;11.33;;;17.00;99.90;;;;;;4914230;29;20409;-62
2021/07/09 07:00:55;;;;;;;14.30;12.17;;;17.00;99.90;;;;;;4914166;29;20412;-62
2021/07/09 07:03:21;;;;;;;12.37;11.23;;;17.00;99.90;;;;;;4913617;29;20220;-62
2021/07/09 07:05:46;;;;;;;11.63;10.60;;;17.00;99.90;;;;;;4914076;29;20740;-61
2021/07/09 07:08:21;;;;;;;14.73;13.20;;;17.10;99.90;;;;;;4914119;29;20657;-62
2021/07/09 07:10:47;;;;;;;9.27;8.17;;;17.10;99.90;;;;;;4913871;29;20270;-62
2021/07/09 07:13:13;;;;;;;15.67;14.03;;;17.10;99.90;;;;;;4913696;29;20549;-61
2021/07/09 07:15:39;;;;;;;16.00;14.30;;;17.20;99.90;;;;;;4914067;28;20961;-62
2021/07/09 07:18:08;;;;;;;12.50;11.40;;;17.10;99.90;;;;;;4914037;29;20259;-62
2021/07/09 07:20:42;;;;;;;14.07;12.67;;;17.20;99.90;;;;;;4913631;29;20492;-62
2021/07/09 07:23:15;;;;;;;13.20;11.80;;;17.10;99.90;;;;;;4913257;29;20831;-61
2021/07/09 07:25:41;;;;;;;13.50;12.30;;;17.30;99.90;;;;;;4914090;29;20503;-61
2021/07/09 07:28:07;;;;;;;10.33;9.13;;;17.30;99.90;;;;;;4913839;29;20424;-61
2021/07/09 07:30:34;;;;;;;10.40;9.40;;;17.40;99.90;;;;;;4913797;29;20909;-62
2021/07/09 07:33:00;;;;;;;9.67;8.80;;;17.50;99.90;;;;;;4913195;29;20448;-62
2021/07/09 07:35:25;;;;;;;8.53;7.77;;;17.60;99.90;;;;;;4913603;29;20405;-61
2021/07/09 07:37:52;;;;;;;10.10;9.10;;;17.70;99.90;;;;;;4913519;29;20401;-61
2021/07/09 07:40:18;;;;;;;7.70;6.90;;;17.70;99.90;;;;;;4914360;29;20180;-61
2021/07/09 07:42:44;;;;;;;9.40;8.40;;;17.80;99.90;;;;;;4913284;29;20462;-61
2021/07/09 07:45:10;;;;;;;10.00;7.73;;;17.90;99.90;;;;;;4913503;29;20412;-61
2021/07/09 07:47:36;;;;;;;8.80;7.90;;;17.90;99.90;;;;;;4913447;29;20421;-61
2021/07/09 07:50:02;;;;;;;8.90;8.10;;;18.00;99.90;;;;;;4913440;29;20417;-61
2021/07/09 07:52:28;;;;;;;8.13;6.60;;;18.10;99.90;;;;;;4912908;29;20657;-61
2021/07/09 07:54:53;;;;;;;6.77;6.17;;;18.30;99.90;;;;;;4913232;29;20610;-61
2021/07/09 07:57:20;;;;;;;6.80;6.10;;;18.40;99.90;;;;;;4913355;29;20169;-60
2021/07/09 07:59:45;;;;;;;8.90;7.27;;;18.50;99.90;;;;;;4913329;29;20185;-62
2021/07/09 08:02:11;;;;;;;6.17;5.67;;;18.60;99.90;;;;;;4913248;29;20408;-61
2021/07/09 08:04:38;;;;;;;5.80;5.20;;;18.60;99.90;;;;;;4912830;29;20211;-61
2021/07/09 08:07:04;;;;;;;7.17;6.57;;;18.80;99.90;;;;;;4913071;29;20412;-60
2021/07/09 08:09:29;;;;;;;6.07;5.50;;;18.90;99.90;;;;;;4913129;29;20394;-60
2021/07/09 08:11:56;;;;;;;5.90;5.40;;;18.90;99.90;;;;;;4913089;29;20419;-61
2021/07/09 08:14:22;;;;;;;8.03;6.27;;;18.90;99.60;;;;;;4912669;29;20581;-61
2021/07/09 08:16:51;;;;;;;6.73;6.20;;;18.90;99.90;;;;;;4913135;29;20409;-61
2021/07/09 08:19:18;;;;;;;7.00;6.40;;;19.00;99.90;;;;;;4913057;29;20180;-61
2021/07/09 08:21:46;;;;;;;7.07;6.23;;;18.90;99.90;;;;;;4913028;29;20511;-62
2021/07/09 08:24:16;;;;;;;5.67;5.27;;;18.90;99.90;;;;;;4912552;29;20467;-60
2021/07/09 08:26:42;;;;;;;8.00;6.13;;;18.80;99.90;;;;;;4912997;29;20452;-61
2021/07/09 08:29:08;;;;;;;7.37;6.77;;;18.70;99.90;;;;;;4912867;29;20427;-62
2021/07/09 08:31:33;;;;;;;9.70;5.87;;;18.70;99.90;;;;;;4914386;29;20408;-62
2021/07/09 08:33:59;;;;;;;7.23;6.63;;;18.90;99.90;;;;;;4918614;29;20211;-61
2021/07/09 08:36:25;;;;;;;7.93;6.77;;;19.00;99.90;;;;;;4919153;29;20594;-60
2021/07/09 08:38:52;;;;;;;7.20;6.60;;;19.00;99.90;;;;;;4919308;29;20772;-61
2021/07/09 08:41:17;;;;;;;7.90;7.10;;;19.10;99.90;;;;;;4919035;28;20188;-62
2021/07/09 08:43:43;;;;;;;7.37;6.67;;;19.00;99.90;;;;;;4918779;29;20445;-62
2021/07/09 08:46:09;;;;;;;8.70;7.90;;;19.10;99.90;;;;;;4919382;29;20182;-61
2021/07/09 08:48:36;;;;;;;8.80;8.00;;;19.10;99.90;;;;;;4918813;29;20183;-62
2021/07/09 08:51:04;;;;;;;7.53;6.80;;;19.10;99.90;;;;;;4918992;29;20168;-62
2021/07/09 08:53:29;;;;;;;7.10;6.40;;;19.10;99.90;;;;;;4918526;29;20468;-62
2021/07/09 08:55:55;;;;;;;8.23;7.53;;;19.10;99.90;;;;;;4918915;29;20423;-62
2021/07/09 08:58:21;;;;;;;10.17;9.17;;;19.10;99.90;;;;;;4918921;29;20172;-61
2021/07/09 09:00:47;;;;;;;8.10;7.40;;;18.90;99.70;;;;;;4918943;29;20203;-62
2021/07/09 09:03:18;;;;;;;8.30;7.50;;;19.00;99.90;;;;;;4918300;29;20204;-61
2021/07/09 09:05:44;;;;;;;7.97;7.27;;;19.00;99.90;;;;;;4919030;29;20235;-61
2021/07/09 09:08:11;;;;;;;10.33;8.97;;;19.00;99.90;;;;;;4918760;29;20425;-62
2021/07/09 09:10:50;;;;;;;8.73;7.83;;;18.90;99.90;;;;;;4918833;29;20427;-61
2021/07/09 09:13:18;;;;;;;9.77;8.87;;;18.80;99.90;;;;;;4918326;29;20470;-60
2021/07/09 09:16:10;;;;;;;9.13;8.20;;;18.90;99.90;;;;;;4918621;29;20412;-61
2021/07/09 09:18:57;;;;;;;10.50;7.20;;;19.00;99.90;;;;;;4918785;29;20416;-60
2021/07/09 09:21:24;;;;;;;7.90;7.27;;;19.00;99.90;;;;;;4918738;29;20416;-62
2021/07/09 09:23:50;;;;;;;6.60;6.20;;;19.10;99.90;;;;;;4918149;29;20467;-62
2021/07/09 09:26:38;;;;;;;6.63;6.00;;;19.20;99.60;;;;;;4918903;29;20428;-61
2021/07/09 09:29:03;;;;;;;7.13;6.53;;;19.30;99.30;;;;;;4918696;29;20204;-61
2021/07/09 09:31:34;;;;;;;8.03;6.60;;;19.30;99.30;;;;;;4918611;29;20925;-62
2021/07/09 09:34:04;;;;;;;6.13;5.70;;;19.40;99.60;;;;;;4917951;28;20220;-62
2021/07/09 09:36:30;;;;;;;6.80;6.30;;;19.30;99.90;;;;;;4918362;29;20409;-62
2021/07/09 09:38:59;;;;;;;6.60;6.13;;;19.30;99.70;;;;;;4918417;29;20483;-61
2021/07/09 09:41:25;;;;;;;6.53;5.87;;;19.40;99.90;;;;;;4918626;29;20466;-62
2021/07/09 09:43:51;;;;;;;7.00;6.17;;;19.30;99.90;;;;;;4916106;29;20532;-62
2021/07/09 09:46:25;;;;;;;6.83;6.30;;;19.40;99.90;;;;;;4915318;29;20488;-63
2021/07/09 09:48:51;;;;;;;8.07;7.23;;;19.40;99.90;;;;;;4914481;29;20273;-62
2021/07/09 09:51:29;;;;;;;6.93;6.27;;;19.30;99.90;;;;;;4898578;29;20523;-62
2021/07/09 09:54:15;;;;;;;7.17;6.57;;;19.40;99.90;;;;;;4915358;29;20216;-62
2021/07/09 09:56:44;;;;;;;7.47;6.80;;;19.20;99.90;;;;;;4914725;28;20822;-61
2021/07/09 09:59:22;;;;;;;6.53;5.93;;;19.10;99.90;;;;;;4915117;29;20409;-62
2021/07/09 10:01:49;;;;;;;8.03;7.37;;;18.90;99.90;;;;;;4915284;29;20417;-62
2021/07/09 10:04:15;;;;;;;6.77;6.27;;;18.90;99.90;;;;;;4914621;29;20451;-62
2021/07/09 10:06:43;;;;;;;7.83;7.23;;;18.80;99.90;;;;;;4915089;29;20417;-62
2021/07/09 10:09:09;;;;;;;9.13;7.30;;;18.80;99.90;;;;;;4914929;29;20755;-62
2021/07/09 10:11:37;;;;;;;8.93;7.37;;;18.60;99.90;;;;;;4914923;29;20448;-62
2021/07/09 10:14:03;;;;;;;7.30;6.60;;;18.60;99.90;;;;;;4914435;29;20555;-62
2021/07/09 10:16:29;;;;;;;10.43;7.47;;;18.50;99.90;;;;;;4914916;29;20508;-62
2021/07/09 10:18:56;;;;;;;7.13;6.53;;;18.50;99.90;;;;;;4904614;28;20424;-62
2021/07/09 10:21:22;;;;;;;7.27;6.57;;;18.40;99.90;;;;;;4895373;29;20505;-61
2021/07/09 10:23:48;;;;;;;8.27;7.50;;;18.50;99.90;;;;;;4893559;29;20888;-62
2021/07/09 10:26:18;;;;;;;7.60;6.63;;;18.50;99.90;;;;;;4894388;29;20260;-62
2021/07/09 10:29:12;;;;;;;7.10;6.50;;;18.50;99.90;;;;;;4895726;29;20190;-62
2021/07/09 10:31:39;;;;;;;7.10;6.40;;;18.50;99.90;;;;;;4895709;29;20929;-62
2021/07/09 10:34:26;;;;;;;7.30;6.60;;;18.50;99.90;;;;;;4895334;29;20462;-62
2021/07/09 10:37:12;;;;;;;8.30;7.50;;;18.60;99.90;;;;;;4895656;29;20414;-62
2021/07/09 10:39:41;;;;;;;8.47;7.70;;;18.40;99.90;;;;;;4891636;29;20461;-62
2021/07/09 10:42:30;;;;;;;9.87;8.97;;;18.50;99.90;;;;;;4895585;29;20914;-62
2021/07/09 10:45:02;;;;;;;8.40;7.67;;;18.60;99.90;;;;;;4895631;29;20747;-62
2021/07/09 10:47:44;;;;;;;9.90;9.00;;;18.70;99.90;;;;;;4895390;29;20933;-62
2021/07/09 10:50:34;;;;;;;8.70;8.00;;;18.70;99.90;;;;;;4895456;29;20425;-62
2021/07/09 10:53:23;;;;;;;11.97;10.90;;;18.80;99.90;;;;;;4895073;29;20445;-62
2021/07/09 10:55:52;;;;;;;12.97;11.87;;;18.80;99.90;;;;;;4895315;28;20413;-62
2021/07/09 10:58:26;;;;;;;12.63;9.63;;;19.00;99.90;;;;;;4895415;29;20405;-62
2021/07/09 11:00:55;;;;;;;11.13;10.13;;;19.10;99.90;;;;;;4895316;29;20894;-62
2021/07/09 11:03:24;;;;;;;10.57;9.43;;;19.30;99.90;;;;;;4895026;28;20434;-62
2021/07/09 11:05:50;;;;;;;11.27;10.27;;;19.40;99.90;;;;;;4895290;29;20826;-62
2021/07/09 11:08:33;;;;;;;10.77;9.83;;;19.40;99.90;;;;;;4895521;28;20413;-62
2021/07/09 11:11:02;;;;;;;12.27;11.23;;;19.60;99.90;;;;;;4895190;29;20181;-62
2021/07/09 11:13:39;;;;;;;13.40;11.30;;;19.60;99.90;;;;;;4894707;28;21016;-62
2021/07/09 11:16:32;;;;;;;12.20;10.93;;;19.50;99.90;;;;;;4895153;28;20906;-62
2021/07/09 11:19:03;;;;;;;10.90;9.80;;;19.60;99.90;;;;;;4895247;28;20498;-62
2021/07/09 11:21:32;;;;;;;11.50;10.40;;;19.80;99.90;;;;;;4895051;29;20898;-62
2021/07/09 11:24:07;;;;;;;10.07;8.80;;;20.10;99.90;;;;;;4894682;28;20492;-62
2021/07/09 11:26:35;;;;;;;11.97;10.83;;;20.20;99.90;;;;;;4895052;29;20409;-62
2021/07/09 11:29:34;;;;;;;12.17;10.93;;;20.30;99.90;;;;;;4894946;28;20795;-62
2021/07/09 11:32:10;;;;;;;13.43;12.07;;;20.50;99.90;;;;;;4894889;29;20444;-62
2021/07/09 11:34:39;;;;;;;12.77;11.47;;;20.70;99.90;;;;;;4894519;29;20682;-62
2021/07/09 11:37:10;;;;;;;15.20;13.80;;;20.90;99.80;;;;;;4894874;28;20421;-62
2021/07/09 11:39:38;;;;;;;14.67;13.17;;;21.00;99.90;;;;;;4894738;29;20888;-62
2021/07/09 11:42:05;;;;;;;15.80;14.30;;;21.20;99.90;;;;;;4894945;28;20585;-62
2021/07/09 11:44:48;;;;;;;15.70;14.30;;;21.30;99.70;;;;;;4894380;29;20440;-62
2021/07/09 11:47:17;;;;;;;14.90;13.30;;;21.50;99.10;;;;;;4894810;28;20508;-62
2021/07/09 11:50:00;;;;;;;14.83;13.53;;;21.70;99.90;;;;;;4894661;29;20824;-62
2021/07/09 11:52:28;;;;;;;12.00;11.00;;;22.00;99.50;;;;;;4894425;29;20770;-62
2021/07/09 11:54:56;;;;;;;13.33;12.03;;;22.90;99.90;;;;;;4894471;29;21016;-63
2021/07/09 11:57:29;;;;;;;17.90;16.30;;;23.50;97.90;;;;;;4894573;29;20406;-63
2021/07/09 11:59:58;;;;;;;13.37;12.17;;;23.80;96.10;;;;;;4894734;29;20951;-63
2021/07/09 12:02:27;;;;;;;14.73;13.53;;;24.20;96.40;;;;;;4893999;29;20882;-63
2021/07/09 12:04:54;;;;;;;13.00;12.00;;;24.70;97.50;;;;;;4912419;29;20425;-63
2021/07/09 12:07:25;;;;;;;12.83;11.70;;;24.90;95.90;;;;;;4911874;29;20877;-63
2021/07/09 12:09:54;;;;;;;13.27;12.00;;;25.10;95.30;;;;;;4911320;29;20448;-63
2021/07/09 12:12:20;;;;;;;14.80;13.47;;;25.20;94.50;;;;;;4911521;29;20459;-63
2021/07/09 12:14:54;;;;;;;13.07;12.00;;;24.80;91.80;;;;;;4912852;29;20875;-63
2021/07/09 12:17:21;;;;;;;12.50;11.47;;;24.60;93.40;;;;;;4913376;29;20401;-63
2021/07/09 12:20:02;;;;;;;11.33;10.10;;;24.40;94.30;;;;;;4913279;29;20779;-63
2021/07/09 12:22:32;;;;;;;12.33;11.40;;;24.20;94.40;;;;;;4912680;29;20408;-63
2021/07/09 12:25:01;;;;;;;13.73;12.53;;;24.00;94.00;;;;;;4913102;29;20503;-63
2021/07/09 12:27:31;;;;;;;15.50;14.00;;;23.80;94.10;;;;;;4912911;29;20682;-63
2021/07/09 12:29:57;;;;;;;15.07;13.10;;;23.60;94.20;;;;;;4913020;29;20475;-63
2021/07/09 12:32:23;;;;;;;13.13;11.93;;;23.30;94.30;;;;;;4912671;29;20921;-63
2021/07/09 12:35:00;;;;;;;14.93;13.63;;;22.90;93.80;;;;;;4912712;29;20453;-63
2021/07/09 12:37:25;;;;;;;14.53;13.03;;;22.60;93.60;;;;;;4912912;29;20176;-63
2021/07/09 12:39:51;;;;;;;13.33;12.23;;;22.50;94.60;;;;;;4912701;29;20524;-63